New Quay, United Kingdom
Current Conditions -  °F | °C
As of 10:50 PM on Saturday 25 Oct 2014 (Local Time) from EGOP Reporting Station
Scattered Clouds Scattered Clouds  
Wind Chill: 57°   Ceiling: Unl
Heat Index: 57°   Visibility: 6mi
Dew Point: 52°   Wind: 29mph
Humidity: 82%   Direction: 240°WSW
Pressure: 30.09"   Gusts: NA
Location:  52.21°N, 4.37°W
Report Text: EGOP 252150Z AUTO 24025KT 9999 // SCT036/// SCT041/// 14/11 Q1019
Loading
Personal Weather Stations






























Interactive Weather Map
Tropical Storm Tracking
New forecast layout! Learn more

10-Day Weather Forecast

Advertisements
Track Severe Weather on mobile